Time;durP1;ratioP1;P1;durP2;ratioP2;P2;SDS_P1;SDS_P2;PMS_P1;PMS_P2;Temp;Humidity;BMP_temperature;BMP_pressure;BME280_temperature;BME280_humidity;BME280_pressure;Samples;Min_cycle;Max_cycle;Signal;HPM_P1;HPM_P2
2024/02/05 00:01:10;;;;;;;;;;;22.10;33.80;;;;;;5075596;28;20312;-50
2024/02/05 00:03:37;;;;;;;;;;;22.10;33.60;;;;;;5076148;28;20274;-47
2024/02/05 00:06:04;;;;;;;;;;;22.10;33.60;;;;;;5075640;28;20019;-49
2024/02/05 00:08:31;;;;;;;;;;;22.10;33.60;;;;;;5075672;28;20393;-48
2024/02/05 00:10:59;;;;;;;;;;;22.10;34.20;;;;;;5075572;28;20361;-53
2024/02/05 00:13:26;;;;;;;;;;;22.10;33.60;;;;;;5075465;28;19924;-47
2024/02/05 00:15:53;;;;;;;;;;;22.10;33.70;;;;;;5075701;28;19925;-46
2024/02/05 00:18:20;;;;;;;;;;;22.10;33.70;;;;;;5074502;28;19930;-52
2024/02/05 00:20:47;;;;;;;;;;;22.10;33.70;;;;;;5075244;28;19929;-49
2024/02/05 00:23:14;;;;;;;;;;;22.10;33.70;;;;;;5075733;28;19931;-47
2024/02/05 00:25:41;;;;;;;;;;;22.10;33.70;;;;;;5075584;28;20334;-46
2024/02/05 00:28:09;;;;;;;;;;;22.10;33.70;;;;;;5057830;28;19924;-48
2024/02/05 00:30:36;;;;;;;;;;;22.10;33.70;;;;;;5075247;28;19933;-46
2024/02/05 00:33:03;;;;;;;;;;;22.10;33.70;;;;;;5075181;28;19925;-45
2024/02/05 00:35:30;;;;;;;;;;;22.10;33.70;;;;;;5057681;28;19925;-50
2024/02/05 00:37:58;;;;;;;;;;;22.10;33.70;;;;;;5074988;28;20027;-49
2024/02/05 00:40:24;;;;;;;;;;;22.10;33.70;;;;;;5075352;28;20030;-46
2024/02/05 00:42:51;;;;;;;;;;;22.10;33.70;;;;;;5075262;28;19962;-49
2024/02/05 00:45:19;;;;;;;;;;;22.10;33.70;;;;;;5075130;28;20003;-45
2024/02/05 00:47:46;;;;;;;;;;;22.10;33.70;;;;;;5075175;28;20015;-48
2024/02/05 00:50:13;;;;;;;;;;;22.10;33.70;;;;;;5075339;28;20028;-46
2024/02/05 00:52:39;;;;;;;;;;;22.10;33.80;;;;;;5074742;28;19958;-52
2024/02/05 00:55:06;;;;;;;;;;;22.00;33.70;;;;;;5074983;28;19928;-50
2024/02/05 00:57:34;;;;;;;;;;;22.10;33.70;;;;;;5074931;28;19999;-51
2024/02/05 01:00:00;;;;;;;;;;;22.10;34.30;;;;;;5075068;28;19947;-51
2024/02/05 01:02:27;;;;;;;;;;;22.10;33.70;;;;;;5074465;28;19928;-46
2024/02/05 01:04:56;;;;;;;;;;;22.00;33.70;;;;;;5074539;28;19928;-47
2024/02/05 01:07:23;;;;;;;;;;;22.00;33.70;;;;;;5074527;28;19924;-48
2024/02/05 01:09:50;;;;;;;;;;;22.00;33.70;;;;;;5074451;28;20385;-49
2024/02/05 01:12:17;;;;;;;;;;;22.10;33.70;;;;;;5074695;28;20027;-47
2024/02/05 01:14:44;;;;;;;;;;;22.00;33.70;;;;;;5074301;28;19924;-48
2024/02/05 01:17:11;;;;;;;;;;;22.00;33.70;;;;;;5074494;28;19928;-49
2024/02/05 01:19:38;;;;;;;;;;;22.00;33.80;;;;;;5074330;28;19982;-46
2024/02/05 01:22:05;;;;;;;;;;;22.00;33.70;;;;;;5074657;28;19959;-46
2024/02/05 01:24:33;;;;;;;;;;;22.00;33.80;;;;;;5074481;28;19932;-52
2024/02/05 01:26:59;;;;;;;;;;;22.00;33.70;;;;;;5074523;28;19925;-48
2024/02/05 01:29:27;;;;;;;;;;;22.00;33.70;;;;;;5074558;28;19924;-49
2024/02/05 01:31:54;;;;;;;;;;;22.00;33.80;;;;;;5074057;28;19924;-47
2024/02/05 01:34:20;;;;;;;;;;;22.00;33.80;;;;;;5073836;28;19924;-48
2024/02/05 01:36:47;;;;;;;;;;;22.00;33.80;;;;;;5074086;28;19929;-51
2024/02/05 01:39:15;;;;;;;;;;;22.00;33.80;;;;;;5074183;28;20467;-46
2024/02/05 01:41:42;;;;;;;;;;;22.00;33.70;;;;;;5074373;28;20346;-47
2024/02/05 01:44:09;;;;;;;;;;;22.00;33.70;;;;;;5056664;28;20332;-54
2024/02/05 01:46:37;;;;;;;;;;;22.00;33.70;;;;;;5073737;28;20289;-54
2024/02/05 01:49:06;;;;;;;;;;;22.00;33.70;;;;;;5073870;28;20332;-55
2024/02/05 01:51:36;;;;;;;;;;;22.00;33.70;;;;;;5073925;28;19971;-52
2024/02/05 01:54:03;;;;;;;;;;;22.00;33.70;;;;;;5073836;28;20038;-48
2024/02/05 01:56:32;;;;;;;;;;;22.00;33.80;;;;;;5074146;28;19924;-50
2024/02/05 01:59:00;;;;;;;;;;;22.00;33.70;;;;;;5074084;28;19924;-49
2024/02/05 02:01:28;;;;;;;;;;;22.00;33.80;;;;;;5073827;28;20038;-47
2024/02/05 02:03:55;;;;;;;;;;;22.00;33.80;;;;;;5074079;28;19947;-49
2024/02/05 02:06:24;;;;;;;;;;;22.00;33.80;;;;;;5073724;28;19924;-51
2024/02/05 02:08:51;;;;;;;;;;;22.00;33.80;;;;;;5073854;28;20259;-50
2024/02/05 02:11:18;;;;;;;;;;;22.00;33.80;;;;;;5073796;28;20012;-45
2024/02/05 02:13:45;;;;;;;;;;;22.00;33.80;;;;;;5073746;28;19933;-48
2024/02/05 02:16:16;;;;;;;;;;;22.00;33.80;;;;;;5073714;28;19970;-47
2024/02/05 02:18:45;;;;;;;;;;;22.00;33.80;;;;;;5073495;28;19924;-47
2024/02/05 02:21:13;;;;;;;;;;;22.00;33.80;;;;;;5073552;28;20011;-47
2024/02/05 02:23:41;;;;;;;;;;;22.00;33.90;;;;;;5073504;28;19924;-50
2024/02/05 02:26:08;;;;;;;;;;;21.90;33.80;;;;;;5073749;28;19986;-51
2024/02/05 02:28:35;;;;;;;;;;;21.90;33.80;;;;;;5073523;28;19993;-46
2024/02/05 02:31:03;;;;;;;;;;;21.90;33.80;;;;;;5073231;28;19932;-48
2024/02/05 02:33:38;;;;;;;;;;;22.00;33.90;;;;;;5073294;28;19932;-46
2024/02/05 02:36:06;;;;;;;;;;;21.90;33.80;;;;;;5073067;28;20366;-49
2024/02/05 02:38:53;;;;;;;;;;;22.00;33.90;;;;;;5073470;28;19924;-48
2024/02/05 02:41:22;;;;;;;;;;;22.00;33.90;;;;;;5077306;28;19978;-47
2024/02/05 02:43:53;;;;;;;;;;;22.00;33.90;;;;;;5079760;28;19928;-50
2024/02/05 02:46:21;;;;;;;;;;;22.00;33.80;;;;;;5079688;28;19969;-49
2024/02/05 02:48:48;;;;;;;;;;;22.00;33.80;;;;;;5079938;28;19963;-46
2024/02/05 02:51:15;;;;;;;;;;;22.00;33.90;;;;;;5079617;28;19930;-45
2024/02/05 02:53:42;;;;;;;;;;;22.00;33.90;;;;;;5079899;28;20027;-50
2024/02/05 02:56:09;;;;;;;;;;;22.00;33.90;;;;;;5079577;28;20385;-51
2024/02/05 02:58:37;;;;;;;;;;;22.00;33.90;;;;;;5061589;28;19931;-46
2024/02/05 03:01:04;;;;;;;;;;;22.00;33.90;;;;;;5079371;28;19947;-51
2024/02/05 03:03:31;;;;;;;;;;;22.00;33.90;;;;;;5080036;28;19924;-48
2024/02/05 03:05:58;;;;;;;;;;;22.00;33.90;;;;;;5079399;28;19928;-51
2024/02/05 03:08:25;;;;;;;;;;;22.00;33.90;;;;;;5079918;28;20043;-47
2024/02/05 03:10:52;;;;;;;;;;;21.90;33.90;;;;;;5079843;28;19929;-52
2024/02/05 03:13:19;;;;;;;;;;;21.90;33.90;;;;;;5079377;28;20382;-52
2024/02/05 03:15:46;;;;;;;;;;;21.90;33.90;;;;;;5079658;28;19940;-50
2024/02/05 03:18:13;;;;;;;;;;;21.90;33.90;;;;;;5061676;28;20019;-53
2024/02/05 03:20:41;;;;;;;;;;;21.90;33.90;;;;;;5079834;28;19928;-52
2024/02/05 03:23:08;;;;;;;;;;;21.90;33.90;;;;;;5061705;28;19932;-46
2024/02/05 03:25:38;;;;;;;;;;;21.90;33.90;;;;;;5079248;28;19970;-49
2024/02/05 03:28:07;;;;;;;;;;;21.90;33.90;;;;;;5079314;28;19925;-51
2024/02/05 03:30:36;;;;;;;;;;;21.90;33.90;;;;;;5079265;28;19925;-48
2024/02/05 03:33:04;;;;;;;;;;;21.90;33.90;;;;;;5079229;28;19930;-50
2024/02/05 03:35:32;;;;;;;;;;;21.90;33.90;;;;;;5079576;28;19924;-51
2024/02/05 03:37:59;;;;;;;;;;;21.90;33.90;;;;;;5079317;28;20400;-49
2024/02/05 03:40:26;;;;;;;;;;;21.90;33.90;;;;;;5079638;28;19924;-54
2024/02/05 03:42:53;;;;;;;;;;;21.90;33.90;;;;;;5079446;28;19924;-52
2024/02/05 03:45:21;;;;;;;;;;;21.90;33.90;;;;;;5079304;28;20381;-53
2024/02/05 03:47:48;;;;;;;;;;;21.90;33.90;;;;;;5079223;28;20435;-54
2024/02/05 03:50:15;;;;;;;;;;;21.90;34.50;;;;;;5078781;28;20281;-52
2024/02/05 03:52:45;;;;;;;;;;;22.00;34.00;;;;;;5076201;28;19936;-48
2024/02/05 03:55:13;;;;;;;;;;;21.90;33.90;;;;;;5075906;28;19928;-46
2024/02/05 03:57:44;;;;;;;;;;;21.90;33.90;;;;;;5076195;28;19924;-48
2024/02/05 04:00:12;;;;;;;;;;;21.90;33.90;;;;;;5075896;28;19931;-49
2024/02/05 04:02:40;;;;;;;;;;;22.00;33.90;;;;;;5075972;28;19932;-52
2024/02/05 04:05:07;;;;;;;;;;;21.90;33.90;;;;;;5074990;28;20018;-48
2024/02/05 04:07:35;;;;;;;;;;;21.90;33.90;;;;;;5076009;28;20320;-50
2024/02/05 04:10:02;;;;;;;;;;;21.90;33.90;;;;;;5075789;28;19924;-49
2024/02/05 04:12:29;;;;;;;;;;;21.90;33.90;;;;;;5075872;28;20018;-52
2024/02/05 04:14:56;;;;;;;;;;;21.90;33.90;;;;;;5057913;28;20316;-51
2024/02/05 04:17:23;;;;;;;;;;;21.90;33.90;;;;;;5075785;28;19924;-52
2024/02/05 04:19:50;;;;;;;;;;;21.90;33.90;;;;;;5075630;28;19977;-52
2024/02/05 04:22:18;;;;;;;;;;;21.90;34.00;;;;;;5075956;28;19954;-52
2024/02/05 04:24:45;;;;;;;;;;;21.90;33.90;;;;;;5075826;28;20011;-51
2024/02/05 04:27:12;;;;;;;;;;;21.90;33.90;;;;;;5075708;28;19932;-51
2024/02/05 04:29:40;;;;;;;;;;;21.90;33.90;;;;;;5075296;28;20015;-48
2024/02/05 04:32:07;;;;;;;;;;;21.90;33.90;;;;;;5075161;28;19925;-52
2024/02/05 04:34:34;;;;;;;;;;;21.90;33.90;;;;;;5075482;28;19932;-52
2024/02/05 04:37:02;;;;;;;;;;;21.90;34.00;;;;;;5074709;28;19971;-51
2024/02/05 04:39:29;;;;;;;;;;;21.90;33.90;;;;;;5074084;28;19968;-52
2024/02/05 04:41:56;;;;;;;;;;;21.90;33.80;;;;;;5071747;28;19928;-52
2024/02/05 04:44:23;;;;;;;;;;;21.90;33.70;;;;;;5073466;28;19938;-49
2024/02/05 04:46:49;;;;;;;;;;;21.90;33.50;;;;;;5074568;28;20031;-49
2024/02/05 04:49:18;;;;;;;;;;;21.90;33.40;;;;;;5071099;28;20386;-53
2024/02/05 04:51:49;;;;;;;;;;;21.90;33.40;;;;;;5072141;28;19938;-50
2024/02/05 04:54:17;;;;;;;;;;;22.00;33.40;;;;;;5070531;28;20007;-51
2024/02/05 04:56:44;;;;;;;;;;;22.00;33.40;;;;;;5073294;28;19924;-47
2024/02/05 04:59:11;;;;;;;;;;;22.00;33.30;;;;;;5073400;28;19933;-52
2024/02/05 05:01:38;;;;;;;;;;;22.00;33.20;;;;;;5073811;28;19924;-49
2024/02/05 05:04:05;;;;;;;;;;;22.00;33.20;;;;;;5074019;28;19970;-59
2024/02/05 05:06:33;;;;;;;;;;;22.00;33.20;;;;;;5073910;28;19967;-56
2024/02/05 05:09:00;;;;;;;;;;;22.00;33.20;;;;;;5073296;28;19974;-58
2024/02/05 05:11:27;;;;;;;;;;;22.00;33.10;;;;;;5074403;28;19925;-56
2024/02/05 05:13:54;;;;;;;;;;;22.00;33.10;;;;;;5073611;28;19925;-52
2024/02/05 05:16:21;;;;;;;;;;;22.00;33.00;;;;;;5074043;28;19925;-53
2024/02/05 05:18:48;;;;;;;;;;;22.00;33.00;;;;;;5073949;28;19970;-55
2024/02/05 05:21:15;;;;;;;;;;;22.00;32.90;;;;;;5055239;28;19982;-55
2024/02/05 05:23:42;;;;;;;;;;;22.00;32.90;;;;;;5068739;28;19925;-52
2024/02/05 05:26:09;;;;;;;;;;;22.00;32.90;;;;;;5073601;28;19932;-46
2024/02/05 05:28:40;;;;;;;;;;;22.00;32.90;;;;;;5070623;28;19978;-47
2024/02/05 05:31:07;;;;;;;;;;;22.00;32.80;;;;;;5073441;28;20018;-48
2024/02/05 05:33:36;;;;;;;;;;;22.00;32.80;;;;;;5073251;28;20395;-47
2024/02/05 05:36:03;;;;;;;;;;;22.00;32.70;;;;;;5072940;28;19932;-46
2024/02/05 05:38:30;;;;;;;;;;;22.00;32.70;;;;;;5073438;28;19979;-48
2024/02/05 05:40:57;;;;;;;;;;;22.10;32.80;;;;;;5071040;28;20320;-53
2024/02/05 05:43:24;;;;;;;;;;;22.10;32.70;;;;;;5054509;28;19971;-54
2024/02/05 05:45:51;;;;;;;;;;;22.10;33.20;;;;;;5073187;28;19936;-53
2024/02/05 05:48:18;;;;;;;;;;;22.10;32.70;;;;;;5073110;28;19972;-54
2024/02/05 05:50:45;;;;;;;;;;;22.10;32.60;;;;;;5071514;28;20294;-45
2024/02/05 05:53:12;;;;;;;;;;;22.10;32.60;;;;;;5072886;28;19935;-46
2024/02/05 05:55:40;;;;;;;;;;;22.10;32.60;;;;;;5072532;28;20023;-50
2024/02/05 05:58:07;;;;;;;;;;;22.10;32.60;;;;;;5071956;28;20398;-46
2024/02/05 06:00:34;;;;;;;;;;;22.10;32.60;;;;;;5071861;28;19924;-47
2024/02/05 06:03:01;;;;;;;;;;;22.10;32.50;;;;;;5072423;28;19929;-45
2024/02/05 06:05:28;;;;;;;;;;;22.10;32.50;;;;;;5072490;28;19975;-45
2024/02/05 06:07:55;;;;;;;;;;;22.10;32.50;;;;;;5072560;28;19924;-45
2024/02/05 06:10:21;;;;;;;;;;;22.10;32.50;;;;;;5071332;28;19924;-47
2024/02/05 06:12:49;;;;;;;;;;;22.10;32.60;;;;;;5071541;28;19978;-45
2024/02/05 06:15:16;;;;;;;;;;;22.10;32.50;;;;;;5066741;28;19932;-45
2024/02/05 06:17:43;;;;;;;;;;;22.10;32.50;;;;;;5066517;28;20297;-46
2024/02/05 06:20:11;;;;;;;;;;;22.10;32.50;;;;;;5061555;28;20088;-56
2024/02/05 06:22:43;;;;;;;;;;;22.20;32.60;;;;;;5058004;28;20389;-49
2024/02/05 06:25:11;;;;;;;;;;;22.20;32.50;;;;;;5062213;28;20648;-51
2024/02/05 06:27:38;;;;;;;;;;;22.20;33.00;;;;;;5052608;28;19933;-50
2024/02/05 06:30:06;;;;;;;;;;;22.30;33.30;;;;;;5058356;28;20025;-48
2024/02/05 06:32:33;;;;;;;;;;;22.30;33.50;;;;;;5056046;28;20015;-50
2024/02/05 06:35:01;;;;;;;;;;;22.30;33.60;;;;;;5062092;28;19943;-50
2024/02/05 06:37:28;;;;;;;;;;;22.40;33.50;;;;;;5036772;28;19998;-49
2024/02/05 06:39:55;;;;;;;;;;;22.40;33.40;;;;;;5060922;28;20027;-48
2024/02/05 06:42:23;;;;;;;;;;;22.50;33.60;;;;;;5057175;28;19932;-49
2024/02/05 06:44:53;;;;;;;;;;;22.50;33.60;;;;;;5046707;28;19932;-50
2024/02/05 06:47:20;;;;;;;;;;;22.50;33.60;;;;;;5043270;28;19932;-48
2024/02/05 06:49:47;;;;;;;;;;;22.50;33.40;;;;;;5064139;28;19924;-52
2024/02/05 06:52:15;;;;;;;;;;;22.60;33.40;;;;;;5063857;28;19932;-48
2024/02/05 06:54:42;;;;;;;;;;;22.60;33.30;;;;;;5066931;28;19934;-47
2024/02/05 06:57:09;;;;;;;;;;;22.70;33.30;;;;;;5044065;28;19943;-48
2024/02/05 06:59:36;;;;;;;;;;;22.70;33.40;;;;;;5056785;28;20020;-49
2024/02/05 07:02:03;;;;;;;;;;;22.70;33.30;;;;;;5055690;28;20373;-51
2024/02/05 07:04:30;;;;;;;;;;;22.80;33.20;;;;;;5059950;28;19932;-49
2024/02/05 07:06:58;;;;;;;;;;;22.80;33.20;;;;;;5040889;28;20070;-52
2024/02/05 07:09:26;;;;;;;;;;;22.80;33.30;;;;;;5056780;28;19944;-48
2024/02/05 07:11:56;;;;;;;;;;;22.90;33.40;;;;;;5059151;28;19932;-50
2024/02/05 07:14:22;;;;;;;;;;;22.90;33.40;;;;;;5061541;28;19928;-47
2024/02/05 07:16:49;;;;;;;;;;;23.00;33.60;;;;;;5062120;28;19925;-51
2024/02/05 07:19:16;;;;;;;;;;;23.00;33.60;;;;;;5061225;28;19933;-47
2024/02/05 07:21:44;;;;;;;;;;;23.10;33.60;;;;;;5060596;28;19968;-51
2024/02/05 07:24:11;;;;;;;;;;;23.10;33.70;;;;;;5060148;28;19932;-52
2024/02/05 07:26:38;;;;;;;;;;;23.20;33.70;;;;;;5059638;28;19982;-48
2024/02/05 07:29:04;;;;;;;;;;;23.20;33.60;;;;;;5066372;28;20019;-50
2024/02/05 07:31:32;;;;;;;;;;;23.30;33.70;;;;;;5069555;28;20393;-47
2024/02/05 07:33:59;;;;;;;;;;;23.30;33.60;;;;;;5060069;28;19931;-53
2024/02/05 07:36:29;;;;;;;;;;;23.30;33.50;;;;;;5062719;28;19932;-49
2024/02/05 07:38:59;;;;;;;;;;;23.40;33.40;;;;;;5046913;28;19928;-53
2024/02/05 07:41:26;;;;;;;;;;;23.40;33.50;;;;;;5062774;28;19928;-50
2024/02/05 07:43:54;;;;;;;;;;;23.50;33.60;;;;;;5060351;28;19970;-49
2024/02/05 07:46:21;;;;;;;;;;;23.50;33.50;;;;;;5062864;28;19928;-52
2024/02/05 07:48:48;;;;;;;;;;;23.50;33.60;;;;;;5063877;28;19999;-52
2024/02/05 07:51:15;;;;;;;;;;;23.60;33.70;;;;;;5066672;28;19943;-51
2024/02/05 07:53:45;;;;;;;;;;;23.60;33.60;;;;;;5061215;28;20563;-57
2024/02/05 07:56:13;;;;;;;;;;;23.70;33.60;;;;;;5064167;28;19939;-53
2024/02/05 07:58:40;;;;;;;;;;;23.70;33.60;;;;;;5067911;28;20548;-53
2024/02/05 08:01:07;;;;;;;;;;;23.70;33.50;;;;;;5064006;28;19932;-52
2024/02/05 08:03:35;;;;;;;;;;;23.80;33.60;;;;;;5065157;28;20255;-54
2024/02/05 08:06:06;;;;;;;;;;;23.90;33.60;;;;;;5059842;28;20299;-53
2024/02/05 08:08:33;;;;;;;;;;;23.90;33.60;;;;;;5060103;28;20356;-53
2024/02/05 08:11:00;;;;;;;;;;;23.90;33.50;;;;;;5057460;28;19925;-50
2024/02/05 08:13:27;;;;;;;;;;;23.90;33.30;;;;;;5061100;28;20015;-51
2024/02/05 08:15:54;;;;;;;;;;;23.90;33.00;;;;;;5065345;28;20390;-51
2024/02/05 08:18:21;;;;;;;;;;;23.90;33.00;;;;;;5065876;28;19928;-52
2024/02/05 08:20:48;;;;;;;;;;;23.90;32.90;;;;;;5064621;28;20350;-53
2024/02/05 08:23:15;;;;;;;;;;;23.90;32.90;;;;;;5061828;28;19932;-49
2024/02/05 08:25:42;;;;;;;;;;;23.90;33.00;;;;;;5065272;28;19974;-49
2024/02/05 08:28:09;;;;;;;;;;;23.90;33.00;;;;;;5062090;28;19931;-50
2024/02/05 08:30:36;;;;;;;;;;;24.00;33.40;;;;;;5066240;28;20019;-48
2024/02/05 08:33:03;;;;;;;;;;;23.90;33.40;;;;;;5061588;28;19990;-55
2024/02/05 08:35:30;;;;;;;;;;;24.00;33.70;;;;;;5059196;28;21422;-54
2024/02/05 08:37:57;;;;;;;;;;;24.00;33.80;;;;;;5059550;28;20314;-48
2024/02/05 08:40:24;;;;;;;;;;;24.00;33.70;;;;;;5059057;28;19932;-49
2024/02/05 08:42:52;;;;;;;;;;;24.10;33.70;;;;;;5059955;28;19940;-50
2024/02/05 08:45:19;;;;;;;;;;;24.10;33.50;;;;;;5060851;28;19932;-48
2024/02/05 08:47:46;;;;;;;;;;;24.10;33.50;;;;;;5062257;28;19933;-54
2024/02/05 08:50:14;;;;;;;;;;;24.20;33.50;;;;;;5061150;28;19931;-48
2024/02/05 08:52:41;;;;;;;;;;;24.20;33.40;;;;;;5061552;28;20003;-57
2024/02/05 08:55:09;;;;;;;;;;;24.20;33.40;;;;;;5063959;28;19970;-53
2024/02/05 08:57:36;;;;;;;;;;;24.30;33.50;;;;;;5062062;28;19948;-51
2024/02/05 09:00:09;;;;;;;;;;;24.30;33.50;;;;;;5064532;28;19972;-50
2024/02/05 09:02:37;;;;;;;;;;;24.30;33.40;;;;;;5064410;28;19924;-52
2024/02/05 09:05:04;;;;;;;;;;;24.30;33.40;;;;;;5064760;28;19967;-54
2024/02/05 09:07:32;;;;;;;;;;;24.40;33.40;;;;;;5058560;28;19940;-50
2024/02/05 09:09:59;;;;;;;;;;;24.40;33.30;;;;;;5064097;28;20343;-50
2024/02/05 09:12:26;;;;;;;;;;;24.50;33.30;;;;;;5061365;28;20448;-56
2024/02/05 09:14:54;;;;;;;;;;;24.50;33.30;;;;;;5063894;28;19924;-51
2024/02/05 09:17:21;;;;;;;;;;;24.50;33.30;;;;;;5064426;28;19928;-51
2024/02/05 09:19:48;;;;;;;;;;;24.50;33.20;;;;;;5064085;28;19928;-50
2024/02/05 09:22:16;;;;;;;;;;;24.50;33.20;;;;;;5064652;28;19962;-51
2024/02/05 09:24:44;;;;;;;;;;;24.60;33.30;;;;;;5064770;28;19935;-50
2024/02/05 09:27:11;;;;;;;;;;;24.60;33.30;;;;;;5061697;28;20382;-53
2024/02/05 09:29:38;;;;;;;;;;;24.60;33.20;;;;;;5063970;28;20290;-53
2024/02/05 09:32:06;;;;;;;;;;;24.70;33.20;;;;;;5062307;28;20394;-48
2024/02/05 09:34:33;;;;;;;;;;;24.70;33.20;;;;;;5065302;28;20102;-56
2024/02/05 09:37:00;;;;;;;;;;;24.70;33.20;;;;;;5063596;28;19924;-58
2024/02/05 09:39:27;;;;;;;;;;;24.70;33.10;;;;;;5065964;28;19974;-49
2024/02/05 09:41:57;;;;;;;;;;;24.80;33.10;;;;;;5062917;28;20018;-52
2024/02/05 09:44:26;;;;;;;;;;;24.80;33.00;;;;;;5064111;28;19936;-53
2024/02/05 09:46:54;;;;;;;;;;;24.80;33.10;;;;;;5061695;28;20023;-54
2024/02/05 09:49:22;;;;;;;;;;;24.90;33.30;;;;;;5062317;28;19929;-52
2024/02/05 09:51:49;;;;;;;;;;;24.90;33.40;;;;;;5062717;28;20344;-53
2024/02/05 09:54:16;;;;;;;;;;;24.90;33.40;;;;;;5062155;28;20782;-52
2024/02/05 09:56:49;;;;;;;;;;;24.90;33.40;;;;;;5064233;28;19932;-54
2024/02/05 09:59:17;;;;;;;;;;;24.90;33.30;;;;;;5063007;28;19932;-51
2024/02/05 10:01:44;;;;;;;;;;;24.90;33.20;;;;;;5067592;28;20019;-51
2024/02/05 10:04:12;;;;;;;;;;;25.00;33.10;;;;;;5066439;28;19931;-53
2024/02/05 10:06:42;;;;;;;;;;;25.10;33.00;;;;;;5067045;28;19933;-49
2024/02/05 10:09:10;;;;;;;;;;;25.10;32.80;;;;;;5067533;28;19928;-53
2024/02/05 10:11:38;;;;;;;;;;;25.10;32.60;;;;;;5068731;28;19928;-59
2024/02/05 10:14:05;;;;;;;;;;;25.10;33.60;;;;;;5065374;28;19940;-59
2024/02/05 10:16:34;;;;;;;;;;;25.10;32.80;;;;;;5063897;28;19932;-59
2024/02/05 10:19:04;;;;;;;;;;;25.20;32.50;;;;;;5068806;28;20043;-59
2024/02/05 10:21:33;;;;;;;;;;;25.20;31.90;;;;;;5059372;28;19938;-59
2024/02/05 10:24:00;;;;;;;;;;;25.20;31.60;;;;;;5063053;28;20047;-59
2024/02/05 10:26:26;;;;;;;;;;;25.20;31.40;;;;;;5063947;28;19932;-59
2024/02/05 10:29:04;;;;;;;;;;;25.20;31.20;;;;;;5060781;28;19944;-60
2024/02/05 10:31:31;;;;;;;;;;;25.30;31.80;;;;;;5062221;28;19932;-60
2024/02/05 10:33:58;;;;;;;;;;;25.30;31.00;;;;;;5065460;28;19929;-60
2024/02/05 10:36:25;;;;;;;;;;;25.30;31.00;;;;;;5063707;28;21253;-59
2024/02/05 10:38:53;;;;;;;;;;;25.30;31.00;;;;;;5066890;28;19963;-58
2024/02/05 10:41:21;;;;;;;;;;;25.30;30.90;;;;;;5065250;28;19971;-60
2024/02/05 10:43:48;;;;;;;;;;;25.40;31.20;;;;;;5069245;28;19930;-61
2024/02/05 10:46:15;;;;;;;;;;;25.40;31.20;;;;;;5046204;28;19932;-62
2024/02/05 10:48:45;;;;;;;;;;;25.40;31.20;;;;;;5062295;28;19932;-60
2024/02/05 10:51:13;;;;;;;;;;;25.40;31.10;;;;;;5062788;28;20417;-59
2024/02/05 10:53:42;;;;;;;;;;;25.40;31.00;;;;;;5064836;28;19928;-59
2024/02/05 10:56:09;;;;;;;;;;;25.50;31.10;;;;;;5066940;28;19924;-59
2024/02/05 10:58:41;;;;;;;;;;;25.50;31.10;;;;;;5051063;28;20399;-59
2024/02/05 11:01:08;;;;;;;;;;;25.50;31.20;;;;;;5068253;28;19939;-59
2024/02/05 11:03:37;;;;;;;;;;;25.50;31.30;;;;;;5067260;28;19932;-59
2024/02/05 11:06:05;;;;;;;;;;;25.60;31.30;;;;;;5064479;28;19943;-59
2024/02/05 11:08:38;;;;;;;;;;;25.60;31.10;;;;;;5062245;28;19932;-60
2024/02/05 11:11:14;;;;;;;;;;;25.60;31.20;;;;;;5065257;28;19978;-58
2024/02/05 11:13:47;;;;;;;;;;;25.60;31.30;;;;;;5072288;28;20023;-59
2024/02/05 11:16:15;;;;;;;;;;;25.60;31.40;;;;;;5069788;28;19931;-58
2024/02/05 11:18:46;;;;;;;;;;;25.70;31.30;;;;;;5063953;28;20561;-58
2024/02/05 11:21:28;;;;;;;;;;;25.70;31.20;;;;;;5065200;28;20281;-58
2024/02/05 11:23:56;;;;;;;;;;;25.70;31.20;;;;;;5067709;28;19928;-58
2024/02/05 11:26:24;;;;;;;;;;;25.80;31.30;;;;;;5057633;28;19932;-58
2024/02/05 11:28:53;;;;;;;;;;;25.80;31.30;;;;;;5068195;28;20002;-58
2024/02/05 11:31:24;;;;;;;;;;;25.80;31.30;;;;;;5050465;28;19943;-58
2024/02/05 11:34:01;;;;;;;;;;;25.90;31.50;;;;;;5064494;28;20332;-58
2024/02/05 11:36:29;;;;;;;;;;;25.80;31.40;;;;;;5067942;28;20428;-58
2024/02/05 11:39:00;;;;;;;;;;;25.90;31.40;;;;;;5066621;28;19990;-57
2024/02/05 11:41:27;;;;;;;;;;;25.90;31.20;;;;;;5065946;28;19968;-57
2024/02/05 11:44:12;;;;;;;;;;;25.90;31.30;;;;;;5068841;28;20948;-59
2024/02/05 11:46:40;;;;;;;;;;;25.90;31.20;;;;;;5065255;28;19924;-58
2024/02/05 11:49:07;;;;;;;;;;;26.00;31.40;;;;;;5071840;28;19933;-59
2024/02/05 11:51:37;;;;;;;;;;;26.00;31.40;;;;;;5071061;28;19947;-58
2024/02/05 11:54:04;;;;;;;;;;;26.00;31.50;;;;;;5069347;28;19925;-59
2024/02/05 11:56:31;;;;;;;;;;;26.00;31.40;;;;;;5053702;28;20007;-58
2024/02/05 11:58:58;;;;;;;;;;;26.00;31.30;;;;;;5064604;28;20019;-57
2024/02/05 12:01:25;;;;;;;;;;;26.00;31.30;;;;;;5065153;28;21344;-57
2024/02/05 12:03:53;;;;;;;;;;;26.10;31.40;;;;;;5067467;28;20145;-58
2024/02/05 12:06:21;;;;;;;;;;;26.00;31.40;;;;;;5066429;28;19925;-57
2024/02/05 12:08:48;;;;;;;;;;;26.10;31.60;;;;;;5048436;28;19936;-58
2024/02/05 12:11:16;;;;;;;;;;;26.10;31.40;;;;;;5068772;28;21278;-57
2024/02/05 12:13:43;;;;;;;;;;;26.10;31.30;;;;;;5048981;28;19998;-57
2024/02/05 12:16:10;;;;;;;;;;;26.10;31.20;;;;;;5065714;28;19928;-58
2024/02/05 12:18:38;;;;;;;;;;;26.10;31.30;;;;;;5065840;28;20313;-59
2024/02/05 12:21:07;;;;;;;;;;;26.10;31.30;;;;;;5063803;28;20373;-58
2024/02/05 12:23:34;;;;;;;;;;;26.10;31.30;;;;;;5051424;28;19925;-58
2024/02/05 12:26:02;;;;;;;;;;;26.20;31.40;;;;;;5067406;28;19932;-58
2024/02/05 12:28:30;;;;;;;;;;;26.10;31.10;;;;;;5066629;28;19925;-57
2024/02/05 12:30:57;;;;;;;;;;;26.10;31.20;;;;;;5065104;28;19931;-59
2024/02/05 12:33:26;;;;;;;;;;;26.10;31.10;;;;;;5063927;28;20309;-59
2024/02/05 12:36:04;;;;;;;;;;;26.10;31.20;;;;;;5066534;28;19932;-60
2024/02/05 12:38:31;;;;;;;;;;;26.10;31.30;;;;;;5060307;28;19931;-59
2024/02/05 12:40:58;;;;;;;;;;;26.10;31.30;;;;;;5048245;28;20293;-59
2024/02/05 12:43:32;;;;;;;;;;;26.10;31.30;;;;;;5063631;28;19969;-58
2024/02/05 12:46:00;;;;;;;;;;;26.10;31.10;;;;;;5066093;28;19954;-59
2024/02/05 12:48:28;;;;;;;;;;;26.10;31.10;;;;;;5059856;28;19968;-60
2024/02/05 12:50:55;;;;;;;;;;;26.10;31.10;;;;;;5043155;28;19929;-59
2024/02/05 12:53:22;;;;;;;;;;;26.10;31.30;;;;;;5070385;28;19976;-59
2024/02/05 12:55:50;;;;;;;;;;;26.10;31.30;;;;;;5068971;28;19924;-59
2024/02/05 12:58:18;;;;;;;;;;;26.10;31.20;;;;;;5064763;28;19925;-59
2024/02/05 13:00:45;;;;;;;;;;;26.10;31.30;;;;;;5065284;28;19929;-61
2024/02/05 13:03:12;;;;;;;;;;;26.10;31.20;;;;;;5064947;28;19967;-62
2024/02/05 13:05:41;;;;;;;;;;;26.10;31.20;;;;;;5051706;28;20013;-59
2024/02/05 13:08:09;;;;;;;;;;;26.10;31.20;;;;;;5068763;28;20259;-65
2024/02/05 13:10:40;;;;;;;;;;;26.10;31.30;;;;;;5064633;28;19948;-61
2024/02/05 13:13:09;;;;;;;;;;;26.00;31.30;;;;;;5067900;28;19990;-60
2024/02/05 13:15:36;;;;;;;;;;;26.00;31.30;;;;;;5071007;28;20031;-64
2024/02/05 13:18:05;;;;;;;;;;;26.00;31.30;;;;;;5068097;28;19932;-61
2024/02/05 13:20:34;;;;;;;;;;;26.00;31.30;;;;;;5072669;28;19935;-58
2024/02/05 13:23:02;;;;;;;;;;;26.00;31.30;;;;;;5071168;28;20304;-57
2024/02/05 13:25:29;;;;;;;;;;;26.00;31.40;;;;;;5065462;28;20479;-58
2024/02/05 13:27:59;;;;;;;;;;;26.00;31.50;;;;;;5067003;28;19936;-58
2024/02/05 13:30:26;;;;;;;;;;;25.90;31.50;;;;;;5060781;28;19928;-59
2024/02/05 13:32:53;;;;;;;;;;;25.90;31.50;;;;;;5045995;28;19979;-60
2024/02/05 13:35:20;;;;;;;;;;;25.90;31.40;;;;;;5062302;28;19925;-58
2024/02/05 13:37:47;;;;;;;;;;;25.90;31.50;;;;;;5065033;28;19942;-61
2024/02/05 13:40:14;;;;;;;;;;;25.90;31.50;;;;;;5063491;28;19928;-59
2024/02/05 13:42:47;;;;;;;;;;;25.90;31.60;;;;;;5050171;28;19938;-58
2024/02/05 13:45:15;;;;;;;;;;;25.90;31.60;;;;;;5065540;28;20019;-59
2024/02/05 13:47:42;;;;;;;;;;;25.90;31.70;;;;;;5065996;28;19975;-61
2024/02/05 13:50:10;;;;;;;;;;;25.90;31.70;;;;;;5065560;28;19924;-59
2024/02/05 13:52:38;;;;;;;;;;;25.80;31.50;;;;;;5070376;28;19978;-59
2024/02/05 13:55:06;;;;;;;;;;;25.90;31.70;;;;;;5061078;28;19928;-59
2024/02/05 13:57:34;;;;;;;;;;;25.90;31.70;;;;;;5062977;28;20390;-59
2024/02/05 14:00:06;;;;;;;;;;;25.90;31.80;;;;;;5063067;28;19978;-60
2024/02/05 14:02:34;;;;;;;;;;;25.80;31.70;;;;;;5065919;28;20031;-59
2024/02/05 14:05:01;;;;;;;;;;;25.80;31.80;;;;;;5062027;28;20289;-60
2024/02/05 14:07:28;;;;;;;;;;;25.90;31.90;;;;;;5065830;28;19928;-63
2024/02/05 14:09:55;;;;;;;;;;;25.80;31.90;;;;;;5064024;28;19966;-59
2024/02/05 14:12:23;;;;;;;;;;;25.80;31.90;;;;;;5052651;28;20210;-60
2024/02/05 14:14:50;;;;;;;;;;;25.80;32.00;;;;;;5053529;28;19933;-59
2024/02/05 14:17:17;;;;;;;;;;;25.90;32.10;;;;;;5057877;28;20297;-59
2024/02/05 14:19:45;;;;;;;;;;;25.90;32.30;;;;;;5046060;28;19932;-60